BVX107E EGCC-EBBR
Flight info
| Callsign | BVX107E |
|---|---|
| Flight time | 0h 55m |
| Altitude | 23000 |
| Route | LISTO L612 HON/N0480F290 L15 BIG Q70 VABIK/N0437F230 Q70 KOK |
| Aircraft | B77L/H-SDE1E2E3FGHIJ2J3J4J5M1RWXY/LB1D1 |
Departure
| Time | 2026-05-05 16:31 |
|---|---|
| Airport | Manchester Airport (EGCC) |
Arrival
| Time | 2026-05-05 17:26 |
|---|---|
| Airport | Brussels Airport (EBBR) |
| Time | Latitude | Longitude | Altitude | Speed | Heading |
|---|---|---|---|---|---|
| 2026-05-05 15:52 | 53.36417 | -2.28253 | 260 ft | 0 kts | 45° |
| 2026-05-05 16:18 | 53.36397 | -2.28285 | 260 ft | 4 kts | 45° |
| 2026-05-05 16:19 | 53.36380 | -2.28318 | 260 ft | 4 kts | 58° |
| 2026-05-05 16:19 | 53.36371 | -2.28355 | 260 ft | 4 kts | 111° |
| 2026-05-05 16:19 | 53.36350 | -2.28325 | 260 ft | 4 kts | 135° |
| 2026-05-05 16:20 | 53.36338 | -2.28305 | 260 ft | 0 kts | 135° |
| 2026-05-05 16:23 | 53.36308 | -2.28254 | 260 ft | 6 kts | 132° |
| 2026-05-05 16:23 | 53.36282 | -2.28188 | 260 ft | 8 kts | 124° |
| 2026-05-05 16:23 | 53.36191 | -2.28032 | 260 ft | 11 kts | 135° |
| 2026-05-05 16:24 | 53.36134 | -2.27945 | 260 ft | 12 kts | 141° |
| 2026-05-05 16:24 | 53.36067 | -2.27857 | 260 ft | 13 kts | 142° |
| 2026-05-05 16:24 | 53.35890 | -2.27728 | 260 ft | 15 kts | 181° |
| 2026-05-05 16:25 | 53.35774 | -2.27745 | 254 ft | 16 kts | 186° |
| 2026-05-05 16:25 | 53.35547 | -2.27793 | 242 ft | 21 kts | 201° |
| 2026-05-05 16:25 | 53.35436 | -2.27951 | 242 ft | 21 kts | 224° |
| 2026-05-05 16:26 | 53.35260 | -2.28243 | 236 ft | 20 kts | 227° |
| 2026-05-05 16:26 | 53.35085 | -2.28606 | 236 ft | 12 kts | 231° |
| 2026-05-05 16:27 | 53.35026 | -2.28720 | 237 ft | 14 kts | 226° |
| 2026-05-05 16:27 | 53.34952 | -2.28850 | 231 ft | 16 kts | 226° |
| 2026-05-05 16:27 | 53.34866 | -2.29002 | 230 ft | 21 kts | 227° |
| 2026-05-05 16:27 | 53.34779 | -2.29172 | 225 ft | 13 kts | 231° |
| 2026-05-05 16:28 | 53.34719 | -2.29282 | 224 ft | 11 kts | 221° |
| 2026-05-05 16:28 | 53.34696 | -2.29308 | 217 ft | 2 kts | 211° |
| 2026-05-05 16:28 | 53.34680 | -2.29322 | 218 ft | 3 kts | 204° |
| 2026-05-05 16:28 | 53.34632 | -2.29338 | 217 ft | 12 kts | 181° |
| 2026-05-05 16:29 | 53.34555 | -2.29289 | 226 ft | 11 kts | 133° |
| 2026-05-05 16:29 | 53.34550 | -2.29202 | 221 ft | 8 kts | 61° |
| 2026-05-05 16:29 | 53.34588 | -2.29125 | 223 ft | 8 kts | 50° |
| 2026-05-05 16:29 | 53.34595 | -2.29110 | 223 ft | 0 kts | 50° |
| 2026-05-05 16:30 | 53.34597 | -2.29105 | 223 ft | 6 kts | 51° |
| 2026-05-05 16:30 | 53.34736 | -2.28817 | 229 ft | 63 kts | 51° |
| 2026-05-05 16:30 | 53.35214 | -2.27830 | 242 ft | 151 kts | 50° |
| 2026-05-05 16:31 | 53.35969 | -2.26288 | 730 ft | 173 kts | 49° |
| 2026-05-05 16:31 | 53.36676 | -2.24836 | 2041 ft | 159 kts | 48° |
| 2026-05-05 16:31 | 53.37333 | -2.23405 | 3025 ft | 159 kts | 59° |
| 2026-05-05 16:31 | 53.37639 | -2.21451 | 3491 ft | 194 kts | 90° |
| 2026-05-05 16:32 | 53.37181 | -2.19129 | 3832 ft | 235 kts | 127° |
| 2026-05-05 16:32 | 53.35815 | -2.17338 | 4313 ft | 261 kts | 150° |
| 2026-05-05 16:32 | 53.34050 | -2.16530 | 4924 ft | 267 kts | 181° |
| 2026-05-05 16:32 | 53.32214 | -2.16957 | 5003 ft | 272 kts | 187° |
| 2026-05-05 16:33 | 53.30313 | -2.17349 | 5015 ft | 277 kts | 185° |
| 2026-05-05 16:33 | 53.28429 | -2.17664 | 5007 ft | 273 kts | 185° |
| 2026-05-05 16:33 | 53.26528 | -2.17973 | 5000 ft | 270 kts | 184° |
| 2026-05-05 16:33 | 53.24667 | -2.18270 | 4995 ft | 270 kts | 184° |
| 2026-05-05 16:34 | 53.22788 | -2.18569 | 4997 ft | 272 kts | 185° |
| 2026-05-05 16:34 | 53.20918 | -2.18865 | 5196 ft | 274 kts | 185° |
| 2026-05-05 16:34 | 53.19017 | -2.19164 | 6319 ft | 275 kts | 185° |
| 2026-05-05 16:34 | 53.17099 | -2.19463 | 7441 ft | 280 kts | 185° |
| 2026-05-05 16:35 | 53.15155 | -2.19756 | 8581 ft | 281 kts | 184° |
| 2026-05-05 16:35 | 53.13204 | -2.19319 | 9441 ft | 288 kts | 160° |
| 2026-05-05 16:35 | 53.11327 | -2.18005 | 10295 ft | 299 kts | 158° |
| 2026-05-05 16:35 | 53.09332 | -2.16584 | 10838 ft | 326 kts | 158° |
| 2026-05-05 16:36 | 53.07130 | -2.15027 | 11135 ft | 362 kts | 158° |
| 2026-05-05 16:36 | 53.04732 | -2.13342 | 11793 ft | 382 kts | 158° |
| 2026-05-05 16:36 | 53.02255 | -2.11609 | 13033 ft | 388 kts | 158° |
| 2026-05-05 16:36 | 52.99747 | -2.09863 | 14320 ft | 392 kts | 159° |
| 2026-05-05 16:37 | 52.97212 | -2.08107 | 15438 ft | 398 kts | 159° |
| 2026-05-05 16:37 | 52.94630 | -2.06326 | 16527 ft | 405 kts | 159° |
| 2026-05-05 16:37 | 52.92007 | -2.04523 | 17653 ft | 411 kts | 160° |
| 2026-05-05 16:37 | 52.89352 | -2.02702 | 18643 ft | 417 kts | 160° |
| 2026-05-05 16:38 | 52.86662 | -2.00859 | 19032 ft | 418 kts | 160° |
| 2026-05-05 16:38 | 52.83960 | -1.99011 | 19005 ft | 420 kts | 160° |
| 2026-05-05 16:38 | 52.81249 | -1.97159 | 19147 ft | 422 kts | 160° |
| 2026-05-05 16:38 | 52.78529 | -1.95302 | 20123 ft | 425 kts | 160° |
| 2026-05-05 16:39 | 52.75819 | -1.93456 | 21157 ft | 428 kts | 160° |
| 2026-05-05 16:39 | 52.73057 | -1.91577 | 22090 ft | 433 kts | 160° |
| 2026-05-05 16:39 | 52.70246 | -1.89669 | 22933 ft | 440 kts | 160° |
| 2026-05-05 16:39 | 52.67400 | -1.87738 | 23769 ft | 446 kts | 160° |
| 2026-05-05 16:40 | 52.64515 | -1.85782 | 24534 ft | 450 kts | 160° |
| 2026-05-05 16:40 | 52.61611 | -1.83816 | 25345 ft | 452 kts | 160° |
| 2026-05-05 16:40 | 52.58685 | -1.81838 | 26129 ft | 456 kts | 160° |
| 2026-05-05 16:40 | 52.55738 | -1.79849 | 26866 ft | 460 kts | 160° |
| 2026-05-05 16:41 | 52.52758 | -1.77842 | 27585 ft | 465 kts | 160° |
| 2026-05-05 16:41 | 52.49760 | -1.75824 | 28285 ft | 468 kts | 160° |
| 2026-05-05 16:41 | 52.46731 | -1.73788 | 28963 ft | 472 kts | 160° |
| 2026-05-05 16:41 | 52.43684 | -1.71743 | 28988 ft | 474 kts | 160° |
| 2026-05-05 16:42 | 52.37669 | -1.67310 | 29008 ft | 476 kts | 152° |
| 2026-05-05 16:42 | 52.32328 | -1.60824 | 28979 ft | 482 kts | 139° |
| 2026-05-05 16:43 | 52.27695 | -1.52892 | 28994 ft | 483 kts | 136° |
| 2026-05-05 16:43 | 52.25399 | -1.48897 | 29102 ft | 484 kts | 135° |
| 2026-05-05 16:43 | 52.23081 | -1.44894 | 29092 ft | 486 kts | 136° |
| 2026-05-05 16:44 | 52.18429 | -1.36954 | 29023 ft | 481 kts | 136° |
| 2026-05-05 16:44 | 52.13824 | -1.29162 | 29053 ft | 479 kts | 136° |
| 2026-05-05 16:45 | 52.09227 | -1.21410 | 29036 ft | 480 kts | 136° |
| 2026-05-05 16:45 | 52.04588 | -1.13602 | 29011 ft | 483 kts | 136° |
| 2026-05-05 16:46 | 51.99870 | -1.05797 | 28950 ft | 483 kts | 137° |
| 2026-05-05 16:46 | 51.95137 | -0.98006 | 28932 ft | 484 kts | 136° |
| 2026-05-05 16:47 | 51.91292 | -0.91537 | 28952 ft | 474 kts | 136° |
| 2026-05-05 16:47 | 51.86002 | -0.82691 | 28951 ft | 468 kts | 137° |
| 2026-05-05 16:48 | 51.81467 | -0.75163 | 28939 ft | 466 kts | 137° |
| 2026-05-05 16:48 | 51.77662 | -0.68874 | 28936 ft | 466 kts | 137° |
| 2026-05-05 16:49 | 51.73123 | -0.61413 | 28937 ft | 467 kts | 137° |
| 2026-05-05 16:49 | 51.68635 | -0.54054 | 29003 ft | 468 kts | 137° |
| 2026-05-05 16:50 | 51.64049 | -0.46553 | 29020 ft | 469 kts | 137° |
| 2026-05-05 16:50 | 51.59445 | -0.39042 | 29024 ft | 469 kts | 137° |
| 2026-05-05 16:51 | 51.54891 | -0.31636 | 29024 ft | 468 kts | 137° |
| 2026-05-05 16:51 | 51.50315 | -0.24218 | 29008 ft | 467 kts | 137° |
| 2026-05-05 16:52 | 51.45746 | -0.16832 | 28948 ft | 467 kts | 137° |
| 2026-05-05 16:52 | 51.43444 | -0.13125 | 28770 ft | 469 kts | 137° |
| 2026-05-05 16:52 | 51.41134 | -0.09414 | 28683 ft | 468 kts | 137° |
| 2026-05-05 16:53 | 51.38855 | -0.05736 | 28863 ft | 464 kts | 137° |
| 2026-05-05 16:53 | 51.36679 | -0.02237 | 28922 ft | 463 kts | 137° |
| 2026-05-05 16:53 | 51.34562 | 0.01608 | 28999 ft | 463 kts | 126° |
| 2026-05-05 16:53 | 51.33160 | 0.06258 | 29024 ft | 469 kts | 108° |
| 2026-05-05 16:54 | 51.32576 | 0.11402 | 28967 ft | 473 kts | 96° |
| 2026-05-05 16:54 | 51.32435 | 0.16653 | 28980 ft | 473 kts | 94° |
| 2026-05-05 16:54 | 51.32024 | 0.26846 | 28981 ft | 475 kts | 96° |
| 2026-05-05 16:55 | 51.31503 | 0.37418 | 28987 ft | 476 kts | 96° |
| 2026-05-05 16:55 | 51.30982 | 0.47963 | 28981 ft | 475 kts | 96° |
| 2026-05-05 16:56 | 51.30464 | 0.58423 | 28978 ft | 475 kts | 96° |
| 2026-05-05 16:56 | 51.30027 | 0.68961 | 28967 ft | 474 kts | 95° |
| 2026-05-05 16:57 | 51.29671 | 0.79483 | 28954 ft | 474 kts | 95° |
| 2026-05-05 16:57 | 51.29289 | 0.90017 | 28941 ft | 474 kts | 95° |
| 2026-05-05 16:58 | 51.28887 | 1.00524 | 28926 ft | 474 kts | 95° |
| 2026-05-05 16:58 | 51.28472 | 1.11038 | 28927 ft | 474 kts | 95° |
| 2026-05-05 16:59 | 51.28044 | 1.21543 | 28927 ft | 474 kts | 96° |
| 2026-05-05 16:59 | 51.27611 | 1.31983 | 28930 ft | 474 kts | 95° |
| 2026-05-05 17:00 | 51.27168 | 1.42493 | 28924 ft | 474 kts | 95° |
| 2026-05-05 17:00 | 51.26715 | 1.53000 | 28924 ft | 473 kts | 96° |
| 2026-05-05 17:01 | 51.26259 | 1.63458 | 28918 ft | 471 kts | 95° |
| 2026-05-05 17:01 | 51.25797 | 1.73895 | 28914 ft | 471 kts | 96° |
| 2026-05-05 17:02 | 51.25325 | 1.84330 | 28919 ft | 470 kts | 96° |
| 2026-05-05 17:02 | 51.24846 | 1.94751 | 28924 ft | 471 kts | 97° |
| 2026-05-05 17:03 | 51.24364 | 2.05109 | 28938 ft | 471 kts | 96° |
| 2026-05-05 17:03 | 51.23890 | 2.15536 | 28934 ft | 471 kts | 96° |
| 2026-05-05 17:04 | 51.23408 | 2.25963 | 28915 ft | 472 kts | 96° |
| 2026-05-05 17:04 | 51.22731 | 2.36357 | 28910 ft | 468 kts | 106° |
| 2026-05-05 17:05 | 51.20100 | 2.45707 | 28902 ft | 461 kts | 125° |
| 2026-05-05 17:05 | 51.18095 | 2.49742 | 28081 ft | 466 kts | 134° |
| 2026-05-05 17:05 | 51.15929 | 2.53472 | 27353 ft | 459 kts | 134° |
| 2026-05-05 17:06 | 51.13816 | 2.57226 | 26583 ft | 452 kts | 133° |
| 2026-05-05 17:06 | 51.11767 | 2.60983 | 25824 ft | 446 kts | 132° |
| 2026-05-05 17:06 | 51.09938 | 2.64894 | 25101 ft | 439 kts | 121° |
| 2026-05-05 17:06 | 51.08850 | 2.69396 | 24366 ft | 438 kts | 105° |
| 2026-05-05 17:07 | 51.08331 | 2.74133 | 23666 ft | 432 kts | 102° |
| 2026-05-05 17:07 | 51.07817 | 2.78830 | 22871 ft | 430 kts | 101° |
| 2026-05-05 17:07 | 51.07283 | 2.83474 | 22192 ft | 426 kts | 102° |
| 2026-05-05 17:07 | 51.06739 | 2.88076 | 21481 ft | 421 kts | 103° |
| 2026-05-05 17:08 | 51.06191 | 2.92633 | 20812 ft | 417 kts | 102° |
| 2026-05-05 17:08 | 51.05642 | 2.97141 | 20143 ft | 413 kts | 102° |
| 2026-05-05 17:08 | 51.05096 | 3.01599 | 19485 ft | 410 kts | 102° |
| 2026-05-05 17:08 | 51.04551 | 3.06029 | 18829 ft | 406 kts | 101° |
| 2026-05-05 17:09 | 51.04011 | 3.10410 | 18169 ft | 403 kts | 101° |
| 2026-05-05 17:09 | 51.03474 | 3.14753 | 17432 ft | 399 kts | 101° |
| 2026-05-05 17:09 | 51.02941 | 3.19055 | 16749 ft | 394 kts | 101° |
| 2026-05-05 17:09 | 51.02414 | 3.23296 | 16085 ft | 390 kts | 101° |
| 2026-05-05 17:10 | 51.01891 | 3.27489 | 15453 ft | 385 kts | 101° |
| 2026-05-05 17:10 | 51.01372 | 3.31634 | 14833 ft | 380 kts | 101° |
| 2026-05-05 17:10 | 51.00859 | 3.35721 | 14219 ft | 375 kts | 101° |
| 2026-05-05 17:10 | 51.00351 | 3.39762 | 13588 ft | 372 kts | 100° |
| 2026-05-05 17:11 | 50.99847 | 3.43755 | 12922 ft | 367 kts | 100° |
| 2026-05-05 17:11 | 50.99354 | 3.47658 | 12316 ft | 363 kts | 101° |
| 2026-05-05 17:11 | 50.98860 | 3.51555 | 11727 ft | 358 kts | 101° |
| 2026-05-05 17:11 | 50.98364 | 3.55450 | 11130 ft | 354 kts | 101° |
| 2026-05-05 17:12 | 50.97879 | 3.59248 | 10682 ft | 347 kts | 101° |
| 2026-05-05 17:12 | 50.97410 | 3.62908 | 10546 ft | 331 kts | 101° |
| 2026-05-05 17:12 | 50.96965 | 3.66374 | 10393 ft | 314 kts | 101° |
| 2026-05-05 17:12 | 50.96536 | 3.69703 | 10277 ft | 310 kts | 101° |
| 2026-05-05 17:13 | 50.96104 | 3.73057 | 10149 ft | 305 kts | 101° |
| 2026-05-05 17:13 | 50.95685 | 3.76306 | 10023 ft | 302 kts | 101° |
| 2026-05-05 17:13 | 50.95265 | 3.79548 | 9883 ft | 299 kts | 101° |
| 2026-05-05 17:13 | 50.94855 | 3.82712 | 9657 ft | 287 kts | 101° |
| 2026-05-05 17:14 | 50.94456 | 3.85779 | 9240 ft | 280 kts | 101° |
| 2026-05-05 17:14 | 50.94067 | 3.88770 | 8912 ft | 274 kts | 101° |
| 2026-05-05 17:14 | 50.93685 | 3.91692 | 8591 ft | 268 kts | 101° |
| 2026-05-05 17:14 | 50.93308 | 3.94568 | 8298 ft | 264 kts | 101° |
| 2026-05-05 17:15 | 50.92935 | 3.97406 | 8046 ft | 264 kts | 100° |
| 2026-05-05 17:15 | 50.92342 | 4.00125 | 7739 ft | 264 kts | 121° |
| 2026-05-05 17:15 | 50.91114 | 4.02304 | 7489 ft | 269 kts | 138° |
| 2026-05-05 17:15 | 50.89645 | 4.04177 | 7190 ft | 273 kts | 141° |
| 2026-05-05 17:16 | 50.88140 | 4.06011 | 6872 ft | 271 kts | 141° |
| 2026-05-05 17:16 | 50.86656 | 4.07809 | 6543 ft | 267 kts | 141° |
| 2026-05-05 17:16 | 50.85188 | 4.09576 | 6212 ft | 263 kts | 141° |
| 2026-05-05 17:16 | 50.83738 | 4.11283 | 5884 ft | 265 kts | 142° |
| 2026-05-05 17:17 | 50.82222 | 4.13045 | 5503 ft | 268 kts | 142° |
| 2026-05-05 17:17 | 50.80721 | 4.14785 | 5176 ft | 267 kts | 142° |
| 2026-05-05 17:17 | 50.79229 | 4.16521 | 4817 ft | 266 kts | 141° |
| 2026-05-05 17:17 | 50.77739 | 4.18247 | 4410 ft | 266 kts | 141° |
| 2026-05-05 17:18 | 50.76280 | 4.19927 | 4069 ft | 258 kts | 141° |
| 2026-05-05 17:18 | 50.74846 | 4.21562 | 3683 ft | 243 kts | 141° |
| 2026-05-05 17:18 | 50.73512 | 4.23059 | 3297 ft | 228 kts | 142° |
| 2026-05-05 17:18 | 50.72250 | 4.24454 | 2948 ft | 216 kts | 142° |
| 2026-05-05 17:19 | 50.71039 | 4.25781 | 2619 ft | 214 kts | 142° |
| 2026-05-05 17:19 | 50.69808 | 4.27129 | 2366 ft | 211 kts | 142° |
| 2026-05-05 17:19 | 50.68623 | 4.28423 | 2054 ft | 208 kts | 142° |
| 2026-05-05 17:19 | 50.67574 | 4.29871 | 1993 ft | 201 kts | 121° |
| 2026-05-05 17:20 | 50.67085 | 4.31860 | 1973 ft | 192 kts | 92° |
| 2026-05-05 17:20 | 50.67273 | 4.33829 | 1956 ft | 176 kts | 64° |
| 2026-05-05 17:20 | 50.67919 | 4.35422 | 1963 ft | 172 kts | 50° |
| 2026-05-05 17:20 | 50.68743 | 4.36777 | 1961 ft | 171 kts | 43° |
| 2026-05-05 17:21 | 50.69611 | 4.38050 | 1958 ft | 170 kts | 42° |
| 2026-05-05 17:21 | 50.70471 | 4.39311 | 1972 ft | 168 kts | 42° |
| 2026-05-05 17:21 | 50.71328 | 4.40571 | 1980 ft | 168 kts | 42° |
| 2026-05-05 17:22 | 50.73223 | 4.42563 | 1984 ft | 162 kts | 21° |
| 2026-05-05 17:22 | 50.74260 | 4.43163 | 1974 ft | 156 kts | 19° |
| 2026-05-05 17:22 | 50.75285 | 4.43658 | 1977 ft | 154 kts | 17° |
| 2026-05-05 17:22 | 50.76329 | 4.44107 | 1991 ft | 157 kts | 17° |
| 2026-05-05 17:23 | 50.77363 | 4.44534 | 1979 ft | 150 kts | 16° |
| 2026-05-05 17:23 | 50.78372 | 4.44946 | 1989 ft | 150 kts | 16° |
| 2026-05-05 17:23 | 50.79378 | 4.45354 | 1981 ft | 148 kts | 15° |
| 2026-05-05 17:23 | 50.80366 | 4.45755 | 1977 ft | 144 kts | 15° |
| 2026-05-05 17:24 | 50.81313 | 4.46140 | 1794 ft | 135 kts | 15° |
| 2026-05-05 17:24 | 50.82192 | 4.46497 | 1627 ft | 132 kts | 15° |
| 2026-05-05 17:24 | 50.83086 | 4.46860 | 1436 ft | 132 kts | 15° |
| 2026-05-05 17:24 | 50.83978 | 4.47223 | 1238 ft | 131 kts | 15° |
| 2026-05-05 17:25 | 50.84853 | 4.47579 | 1055 ft | 133 kts | 15° |
| 2026-05-05 17:25 | 50.85464 | 4.47827 | 926 ft | 136 kts | 15° |
| 2026-05-05 17:25 | 50.86668 | 4.48319 | 640 ft | 133 kts | 14° |
| 2026-05-05 17:25 | 50.87574 | 4.48688 | 473 ft | 135 kts | 15° |
| 2026-05-05 17:26 | 50.88497 | 4.49064 | 280 ft | 137 kts | 14° |
| 2026-05-05 17:26 | 50.89393 | 4.49427 | 175 ft | 125 kts | 13° |
| 2026-05-05 17:26 | 50.90092 | 4.49711 | 131 ft | 78 kts | 15° |
| 2026-05-05 17:26 | 50.90540 | 4.49893 | 125 ft | 38 kts | 13° |
| 2026-05-05 17:27 | 50.90775 | 4.49919 | 124 ft | 32 kts | 347° |
| 2026-05-05 17:27 | 50.90854 | 4.49810 | 124 ft | 10 kts | 259° |
| 2026-05-05 17:27 | 50.90828 | 4.49702 | 126 ft | 11 kts | 246° |
| 2026-05-05 17:27 | 50.90794 | 4.49580 | 123 ft | 13 kts | 244° |
| 2026-05-05 17:28 | 50.90751 | 4.49443 | 126 ft | 15 kts | 245° |
| 2026-05-05 17:28 | 50.90704 | 4.49279 | 122 ft | 17 kts | 244° |
| 2026-05-05 17:28 | 50.90651 | 4.49094 | 123 ft | 20 kts | 246° |
| 2026-05-05 17:28 | 50.90593 | 4.48890 | 121 ft | 21 kts | 245° |
| 2026-05-05 17:29 | 50.90530 | 4.48677 | 123 ft | 22 kts | 245° |
| 2026-05-05 17:29 | 50.90464 | 4.48451 | 121 ft | 23 kts | 246° |
| 2026-05-05 17:29 | 50.90397 | 4.48213 | 122 ft | 24 kts | 246° |
| 2026-05-05 17:29 | 50.90326 | 4.47967 | 121 ft | 25 kts | 244° |
| 2026-05-05 17:30 | 50.90262 | 4.47746 | 120 ft | 18 kts | 246° |
| 2026-05-05 17:30 | 50.90208 | 4.47558 | 122 ft | 19 kts | 244° |
| 2026-05-05 17:30 | 50.90152 | 4.47372 | 125 ft | 17 kts | 246° |
| 2026-05-05 17:30 | 50.90127 | 4.47268 | 127 ft | 7 kts | 258° |
| 2026-05-05 17:31 | 50.90141 | 4.47196 | 125 ft | 7 kts | 302° |
| 2026-05-05 17:31 | 50.90168 | 4.47120 | 126 ft | 8 kts | 296° |
| 2026-05-05 17:31 | 50.90195 | 4.47035 | 129 ft | 9 kts | 297° |
| 2026-05-05 17:31 | 50.90231 | 4.46924 | 131 ft | 16 kts | 297° |
| 2026-05-05 17:32 | 50.90291 | 4.46732 | 128 ft | 21 kts | 296° |
| 2026-05-05 17:32 | 50.90353 | 4.46523 | 128 ft | 21 kts | 286° |
| 2026-05-05 17:32 | 50.90332 | 4.46298 | 138 ft | 21 kts | 248° |
| 2026-05-05 17:32 | 50.90272 | 4.46086 | 140 ft | 21 kts | 246° |
| 2026-05-05 17:33 | 50.90211 | 4.45875 | 143 ft | 21 kts | 246° |
| 2026-05-05 17:33 | 50.90149 | 4.45663 | 144 ft | 21 kts | 245° |
| 2026-05-05 17:33 | 50.90119 | 4.45560 | 145 ft | 9 kts | 245° |
| 2026-05-05 17:33 | 50.90109 | 4.45520 | 145 ft | 2 kts | 257° |
| 2026-05-05 17:34 | 50.90111 | 4.45493 | 146 ft | 3 kts | 282° |
| 2026-05-05 17:34 | 50.90126 | 4.45474 | 146 ft | 3 kts | 332° |
| 2026-05-05 17:34 | 50.90149 | 4.45457 | 146 ft | 5 kts | 335° |
| 2026-05-05 17:34 | 50.90174 | 4.45439 | 146 ft | 2 kts | 335° |
| 2026-05-05 17:35 | 50.90182 | 4.45433 | 146 ft | 1 kts | 335° |
| 2026-05-05 17:35 | 50.90183 | 4.45432 | 146 ft | 0 kts | 335° |